Time;durP1;ratioP1;P1;durP2;ratioP2;P2;SDS_P1;SDS_P2;PMS_P1;PMS_P2;Temp;Humidity;BMP_temperature;BMP_pressure;BME280_temperature;BME280_humidity;BME280_pressure;Samples;Min_cycle;Max_cycle;Signal;HPM_P1;HPM_P2
2021/12/12 00:00:02;;;;;;;;;;;;;;;;;;5095303;28;19916;-76
2021/12/12 00:02:55;;;;;;;;;;;;;;;;;;5095344;28;19916;-76
2021/12/12 00:05:22;;;;;;;;;;;;;;;;;;5087921;28;19924;-77
2021/12/12 00:07:47;;;;;;;;;;;;;;;;;;5094663;28;20007;-77
2021/12/12 00:10:17;;;;;;;;;;;;;;;;;;5094846;28;20370;-77
2021/12/12 00:12:45;;;;;;;;;;;;;;;;;;5099422;28;20458;-77
2021/12/12 00:15:12;;;;;;;;;;;;;;;;;;5106052;28;19927;-79
2021/12/12 00:17:38;;;;;;;;;;;;;;;;;;5109952;28;19916;-79
2021/12/12 00:20:03;;;;;;;;;;;;;;;;;;5109474;28;19920;-79
2021/12/12 00:22:30;;;;;;;;;;;;;;;;;;5104154;28;20018;-77
2021/12/12 00:24:56;;;;;;;;;;;;;;;;;;5103000;28;19916;-78
2021/12/12 00:27:21;;;;;;;;;;;;;;;;;;5108144;28;19923;-78
2021/12/12 00:29:48;;;;;;;;;;;;;;;;;;5108231;28;19920;-78
2021/12/12 00:32:15;;;;;;;;;;;;;;;;;;5109848;28;19916;-78
2021/12/12 00:34:42;;;;;;;;;;;;;;;;;;5106718;28;20015;-78
2021/12/12 00:37:08;;;;;;;;;;;;;;;;;;5107305;28;19924;-78
2021/12/12 00:39:35;;;;;;;;;;;;;;;;;;5110544;28;19940;-78
2021/12/12 00:42:03;;;;;;;;;;;;;;;;;;5111911;28;19941;-78
2021/12/12 00:44:30;;;;;;;;;;;;;;;;;;5111139;28;19920;-78
2021/12/12 00:46:56;;;;;;;;;;;;;;;;;;5112516;28;19926;-78
2021/12/12 00:49:22;;;;;;;;;;;;;;;;;;5109810;28;19923;-78
2021/12/12 00:51:49;;;;;;;;;;;;;;;;;;5111941;28;19916;-78
2021/12/12 00:54:15;;;;;;;;;;;;;;;;;;5109258;28;19916;-78
2021/12/12 00:56:41;;;;;;;;;;;;;;;;;;5109042;28;19927;-77
2021/12/12 00:59:07;;;;;;;;;;;;;;;;;;5110368;28;19916;-78
2021/12/12 01:01:35;;;;;;;;;;;;;;;;;;5114096;28;19927;-77
2021/12/12 01:04:04;;;;;;;;;;;;;;;;;;5112059;28;19916;-77
2021/12/12 01:06:29;;;;;;;;;;;;;;;;;;5111801;28;19920;-80
2021/12/12 01:08:56;;;;;;;;;;;;;;;;;;5112530;28;19916;-77
2021/12/12 01:11:28;;;;;;;;;;;;;;;;;;5112365;28;19941;-78
2021/12/12 01:13:53;;;;;;;;;;;;;;;;;;5109965;28;19972;-78
2021/12/12 01:16:28;;;;;;;;;;;;;;;;;;5111254;28;19928;-78
2021/12/12 01:18:57;;;;;;;;;;;;;;;;;;5109505;28;19920;-77
2021/12/12 01:21:25;;;;;;;;;;;;;;;;;;5105693;28;19920;-77
2021/12/12 01:23:53;;;;;;;;;;;;;;;;;;5102518;28;19942;-77
2021/12/12 01:26:19;;;;;;;;;;;;;;;;;;5102328;28;19974;-77
2021/12/12 01:28:45;;;;;;;;;;;;;;;;;;5101358;28;19916;-77
2021/12/12 01:31:14;;;;;;;;;;;;;;;;;;5100589;28;19916;-77
2021/12/12 01:33:42;;;;;;;;;;;;;;;;;;5100367;28;19916;-77
2021/12/12 01:36:22;;;;;;;;;;;;;;;;;;5102650;28;19920;-77
2021/12/12 01:38:52;;;;;;;;;;;;;;;;;;5100664;28;19930;-77
2021/12/12 01:41:18;;;;;;;;;;;;;;;;;;5102925;28;20321;-77
2021/12/12 01:43:45;;;;;;;;;;;;;;;;;;5101695;28;19920;-77
2021/12/12 01:46:30;;;;;;;;;;;;;;;;;;5101586;28;19942;-78
2021/12/12 01:48:58;;;;;;;;;;;;;;;;;;5100961;28;19916;-77
2021/12/12 01:51:26;;;;;;;;;;;;;;;;;;5101273;28;21258;-77
2021/12/12 01:53:53;;;;;;;;;;;;;;;;;;5100094;28;20351;-77
2021/12/12 01:56:23;;;;;;;;;;;;;;;;;;5103323;28;20296;-77
2021/12/12 01:58:51;;;;;;;;;;;;;;;;;;5102222;28;19916;-78
2021/12/12 02:01:19;;;;;;;;;;;;;;;;;;5101017;28;19916;-77
2021/12/12 02:03:46;;;;;;;;;;;;;;;;;;5101685;28;19919;-77
2021/12/12 02:06:13;;;;;;;;;;;;;;;;;;5101459;28;19917;-77
2021/12/12 02:08:39;;;;;;;;;;;;;;;;;;5102175;28;20435;-77
2021/12/12 02:11:09;;;;;;;;;;;;;;;;;;5101964;28;19915;-77
2021/12/12 02:13:39;;;;;;;;;;;;;;;;;;5109694;28;19916;-78
2021/12/12 02:16:06;;;;;;;;;;;;;;;;;;5123168;28;19926;-78
2021/12/12 02:18:35;;;;;;;;;;;;;;;;;;5124277;28;19916;-77
2021/12/12 02:21:15;;;;;;;;;;;;;;;;;;5123755;28;19916;-77
2021/12/12 02:37:31;;;;;;;;;;;;;;;;;;5102390;28;19919;-77
2021/12/12 02:39:56;;;;;;;;;;;;;;;;;;5100911;28;19916;-77
2021/12/12 02:42:23;;;;;;;;;;;;;;;;;;5100535;28;19999;-77
2021/12/12 02:44:53;;;;;;;;;;;;;;;;;;5101872;28;19938;-77
2021/12/12 02:47:21;;;;;;;;;;;;;;;;;;5103119;28;19926;-77
2021/12/12 02:52:19;;;;;;;;;;;;;;;;;;5101096;28;20353;-77
2021/12/12 02:54:44;;;;;;;;;;;;;;;;;;5102496;28;19916;-77
2021/12/12 02:57:10;;;;;;;;;;;;;;;;;;5101780;28;20003;-78
2021/12/12 02:59:36;;;;;;;;;;;;;;;;;;5102358;28;19958;-78
2021/12/12 03:02:06;;;;;;;;;;;;;;;;;;5100871;28;19916;-77
2021/12/12 03:04:32;;;;;;;;;;;;;;;;;;5099312;28;19916;-77
2021/12/12 03:06:57;;;;;;;;;;;;;;;;;;5115558;28;19916;-77
2021/12/12 03:09:28;;;;;;;;;;;;;;;;;;5123582;28;19920;-78
2021/12/12 03:11:56;;;;;;;;;;;;;;;;;;5113550;28;19963;-78
2021/12/12 03:14:22;;;;;;;;;;;;;;;;;;5104802;28;19916;-77
2021/12/12 03:16:48;;;;;;;;;;;;;;;;;;5102321;28;19920;-78
2021/12/12 03:19:13;;;;;;;;;;;;;;;;;;5101451;28;19920;-77
2021/12/12 03:21:42;;;;;;;;;;;;;;;;;;5101801;28;19916;-77
2021/12/12 03:24:28;;;;;;;;;;;;;;;;;;5103744;28;19979;-77
2021/12/12 03:26:57;;;;;;;;;;;;;;;;;;5103401;28;19973;-77
2021/12/12 03:29:24;;;;;;;;;;;;;;;;;;5102580;28;19938;-77
2021/12/12 03:31:51;;;;;;;;;;;;;;;;;;5102663;28;19916;-77
2021/12/12 03:34:22;;;;;;;;;;;;;;;;;;5102326;28;19916;-77
2021/12/12 03:36:48;;;;;;;;;;;;;;;;;;5102121;28;19924;-77
2021/12/12 03:39:16;;;;;;;;;;;;;;;;;;5101268;28;19920;-77
2021/12/12 03:41:43;;;;;;;;;;;;;;;;;;5101014;28;19931;-77
2021/12/12 03:44:13;;;;;;;;;;;;;;;;;;5101791;28;19916;-78
2021/12/12 03:46:39;;;;;;;;;;;;;;;;;;5103519;28;19926;-77
2021/12/12 03:49:06;;;;;;;;;;;;;;;;;;5103591;28;20357;-78
2021/12/12 03:51:32;;;;;;;;;;;;;;;;;;5084809;28;19916;-77
2021/12/12 03:53:58;;;;;;;;;;;;;;;;;;5102963;28;19916;-77
2021/12/12 03:56:24;;;;;;;;;;;;;;;;;;5101803;28;19977;-77
2021/12/12 03:58:49;;;;;;;;;;;;;;;;;;5103909;28;20377;-77
2021/12/12 04:01:18;;;;;;;;;;;;;;;;;;5103546;28;19923;-77
2021/12/12 04:03:44;;;;;;;;;;;;;;;;;;5103508;28;19977;-77
2021/12/12 04:06:11;;;;;;;;;;;;;;;;;;5102557;28;19916;-77
2021/12/12 04:08:38;;;;;;;;;;;;;;;;;;5101160;28;19916;-77
2021/12/12 04:11:06;;;;;;;;;;;;;;;;;;5101208;28;19993;-77
2021/12/12 04:13:37;;;;;;;;;;;;;;;;;;5082571;28;19916;-77
2021/12/12 04:16:02;;;;;;;;;;;;;;;;;;5082401;28;19955;-77
2021/12/12 04:18:28;;;;;;;;;;;;;;;;;;5083374;28;19912;-77
2021/12/12 04:20:53;;;;;;;;;;;;;;;;;;5082048;28;19927;-77
2021/12/12 04:23:20;;;;;;;;;;;;;;;;;;5083626;28;19921;-77
2021/12/12 04:25:46;;;;;;;;;;;;;;;;;;5083531;28;19916;-77
2021/12/12 04:28:11;;;;;;;;;;;;;;;;;;5084540;28;19924;-78
2021/12/12 04:30:37;;;;;;;;;;;;;;;;;;5083931;28;19917;-77
2021/12/12 04:33:02;;;;;;;;;;;;;;;;;;5084414;28;20027;-78
2021/12/12 04:35:28;;;;;;;;;;;;;;;;;;5102913;28;19920;-77
2021/12/12 04:37:54;;;;;;;;;;;;;;;;;;5102120;28;19989;-77
2021/12/12 04:40:21;;;;;;;;;;;;;;;;;;5102421;28;20315;-77
2021/12/12 04:42:48;;;;;;;;;;;;;;;;;;5102737;28;19952;-77
2021/12/12 04:45:24;;;;;;;;;;;;;;;;;;5106874;28;20019;-77
2021/12/12 04:50:52;;;;;;;;;;;;;;;;;;5102230;28;19916;-77
2021/12/12 04:53:26;;;;;;;;;;;;;;;;;;5101099;28;19916;-77
2021/12/12 04:55:57;;;;;;;;;;;;;;;;;;5103672;28;20384;-77
2021/12/12 04:58:28;;;;;;;;;;;;;;;;;;5104304;28;19927;-77
2021/12/12 05:00:59;;;;;;;;;;;;;;;;;;5102779;28;19916;-77
2021/12/12 05:03:36;;;;;;;;;;;;;;;;;;5101198;28;19916;-77
2021/12/12 05:06:11;;;;;;;;;;;;;;;;;;5101888;28;19942;-77
2021/12/12 05:08:43;;;;;;;;;;;;;;;;;;5104586;28;19927;-77
2021/12/12 05:11:11;;;;;;;;;;;;;;;;;;5104483;28;19938;-77
2021/12/12 05:13:46;;;;;;;;;;;;;;;;;;5105726;28;19961;-78
2021/12/12 05:16:18;;;;;;;;;;;;;;;;;;5104907;28;19920;-77
2021/12/12 05:18:50;;;;;;;;;;;;;;;;;;5103136;28;19983;-77
2021/12/12 05:21:17;;;;;;;;;;;;;;;;;;5103769;28;20344;-77
2021/12/12 05:23:47;;;;;;;;;;;;;;;;;;5106269;28;19920;-77
2021/12/12 05:26:14;;;;;;;;;;;;;;;;;;5109907;28;19916;-78
2021/12/12 05:28:42;;;;;;;;;;;;;;;;;;5109462;28;19923;-77
2021/12/12 05:31:09;;;;;;;;;;;;;;;;;;5108909;28;19916;-78
2021/12/12 05:33:34;;;;;;;;;;;;;;;;;;5105185;28;20266;-78
2021/12/12 05:36:00;;;;;;;;;;;;;;;;;;5106871;28;19968;-78
2021/12/12 05:38:27;;;;;;;;;;;;;;;;;;5107110;28;19916;-78
2021/12/12 05:40:52;;;;;;;;;;;;;;;;;;5107327;28;19924;-77
2021/12/12 05:43:18;;;;;;;;;;;;;;;;;;5097959;28;19917;-77
2021/12/12 05:45:44;;;;;;;;;;;;;;;;;;5084128;28;19928;-78
2021/12/12 05:48:10;;;;;;;;;;;;;;;;;;5084036;28;19917;-77
2021/12/12 05:50:36;;;;;;;;;;;;;;;;;;5084242;28;19939;-77
2021/12/12 05:53:01;;;;;;;;;;;;;;;;;;5081603;28;19916;-77
2021/12/12 05:55:29;;;;;;;;;;;;;;;;;;5076307;28;19920;-78
2021/12/12 05:57:55;;;;;;;;;;;;;;;;;;5077971;28;19916;-77
2021/12/12 06:00:26;;;;;;;;;;;;;;;;;;5078447;28;20065;-77
2021/12/12 06:02:52;;;;;;;;;;;;;;;;;;5078027;28;20323;-78
2021/12/12 06:05:18;;;;;;;;;;;;;;;;;;5097843;28;19920;-78
2021/12/12 06:07:43;;;;;;;;;;;;;;;;;;5098189;28;20400;-78
2021/12/12 06:10:13;;;;;;;;;;;;;;;;;;5096678;28;20373;-77
2021/12/12 06:12:39;;;;;;;;;;;;;;;;;;5095945;28;20413;-77
2021/12/12 06:15:08;;;;;;;;;;;;;;;;;;5095861;28;20008;-77
2021/12/12 06:17:35;;;;;;;;;;;;;;;;;;5095780;28;19916;-77
2021/12/12 06:20:01;;;;;;;;;;;;;;;;;;5096051;28;19920;-77
2021/12/12 06:22:26;;;;;;;;;;;;;;;;;;5095718;28;19922;-78
2021/12/12 06:24:53;;;;;;;;;;;;;;;;;;5095668;28;19955;-77
2021/12/12 06:27:19;;;;;;;;;;;;;;;;;;5094531;28;20337;-78
2021/12/12 06:29:46;;;;;;;;;;;;;;;;;;5095599;28;19916;-77
2021/12/12 06:32:11;;;;;;;;;;;;;;;;;;5095723;28;20003;-77
2021/12/12 06:34:37;;;;;;;;;;;;;;;;;;5090657;28;19963;-77
2021/12/12 06:37:03;;;;;;;;;;;;;;;;;;5073450;28;19920;-77
2021/12/12 06:39:29;;;;;;;;;;;;;;;;;;5074602;28;19916;-77
2021/12/12 06:41:54;;;;;;;;;;;;;;;;;;5074942;28;19954;-77
2021/12/12 06:44:20;;;;;;;;;;;;;;;;;;5074784;28;19958;-77
2021/12/12 06:46:45;;;;;;;;;;;;;;;;;;5074813;28;20425;-76
2021/12/12 06:49:12;;;;;;;;;;;;;;;;;;5074885;28;19916;-77
2021/12/12 06:51:39;;;;;;;;;;;;;;;;;;5073836;28;19916;-77
2021/12/12 06:54:05;;;;;;;;;;;;;;;;;;5073715;28;20324;-78
2021/12/12 06:56:30;;;;;;;;;;;;;;;;;;5074650;28;19947;-77
2021/12/12 06:58:58;;;;;;;;;;;;;;;;;;5074955;28;20019;-77
2021/12/12 07:01:27;;;;;;;;;;;;;;;;;;5073327;28;20019;-76
2021/12/12 07:03:54;;;;;;;;;;;;;;;;;;5082676;28;20126;-77
2021/12/12 07:06:21;;;;;;;;;;;;;;;;;;5094937;28;19916;-76
2021/12/12 07:08:46;;;;;;;;;;;;;;;;;;5094691;28;19915;-76
2021/12/12 07:11:15;;;;;;;;;;;;;;;;;;5094854;28;20015;-76
2021/12/12 07:13:40;;;;;;;;;;;;;;;;;;5093434;28;19916;-77
2021/12/12 07:16:06;;;;;;;;;;;;;;;;;;5096175;28;19920;-77
2021/12/12 07:18:32;;;;;;;;;;;;;;;;;;5094593;28;19916;-78
2021/12/12 07:21:00;;;;;;;;;;;;;;;;;;5094492;28;20002;-75
2021/12/12 07:23:25;;;;;;;;;;;;;;;;;;5094726;28;20059;-76
2021/12/12 07:25:51;;;;;;;;;;;;;;;;;;5094638;28;20007;-77
2021/12/12 07:28:17;;;;;;;;;;;;;;;;;;5093032;28;19915;-77
2021/12/12 07:30:43;;;;;;;;;;;;;;;;;;5094625;28;19924;-76
2021/12/12 07:33:09;;;;;;;;;;;;;;;;;;5092467;28;19955;-76
2021/12/12 07:35:36;;;;;;;;;;;;;;;;;;5090718;28;20362;-76
2021/12/12 07:38:02;;;;;;;;;;;;;;;;;;5094267;28;19922;-76
2021/12/12 07:40:27;;;;;;;;;;;;;;;;;;5094451;28;19986;-77
2021/12/12 07:42:53;;;;;;;;;;;;;;;;;;5092707;28;19928;-78
2021/12/12 07:45:20;;;;;;;;;;;;;;;;;;5094168;28;19974;-78
2021/12/12 07:47:46;;;;;;;;;;;;;;;;;;5093142;28;19920;-77
2021/12/12 07:50:13;;;;;;;;;;;;;;;;;;5092729;28;19923;-78
2021/12/12 07:52:38;;;;;;;;;;;;;;;;;;5092913;28;20511;-78
2021/12/12 07:55:04;;;;;;;;;;;;;;;;;;5093337;28;19942;-77
2021/12/12 07:57:30;;;;;;;;;;;;;;;;;;5094093;28;19961;-78
2021/12/12 07:59:56;;;;;;;;;;;;;;;;;;5093872;28;19916;-78
2021/12/12 08:02:22;;;;;;;;;;;;;;;;;;5094108;28;19916;-78
2021/12/12 08:04:48;;;;;;;;;;;;;;;;;;5109460;28;19923;-78
2021/12/12 08:07:15;;;;;;;;;;;;;;;;;;5114207;28;20285;-78
2021/12/12 08:09:42;;;;;;;;;;;;;;;;;;5114320;28;19923;-77
2021/12/12 08:12:12;;;;;;;;;;;;;;;;;;5114219;28;19916;-77
2021/12/12 08:14:38;;;;;;;;;;;;;;;;;;5115197;28;19916;-79
2021/12/12 08:17:05;;;;;;;;;;;;;;;;;;5119394;28;19930;-79
2021/12/12 08:19:30;;;;;;;;;;;;;;;;;;5121629;28;20377;-79
2021/12/12 08:21:59;;;;;;;;;;;;;;;;;;5116900;28;19962;-79
2021/12/12 08:24:26;;;;;;;;;;;;;;;;;;5114828;28;19916;-79
2021/12/12 08:26:51;;;;;;;;;;;;;;;;;;5114302;28;19912;-78
2021/12/12 08:29:17;;;;;;;;;;;;;;;;;;5114827;28;19916;-77
2021/12/12 08:31:43;;;;;;;;;;;;;;;;;;5114364;28;19916;-77
2021/12/12 08:34:10;;;;;;;;;;;;;;;;;;5103338;28;19916;-77
2021/12/12 08:36:37;;;;;;;;;;;;;;;;;;5094991;28;19928;-77
2021/12/12 08:39:04;;;;;;;;;;;;;;;;;;5094479;28;19916;-77
2021/12/12 08:41:30;;;;;;;;;;;;;;;;;;5093626;28;19916;-77
2021/12/12 08:43:57;;;;;;;;;;;;;;;;;;5092182;28;20018;-77
2021/12/12 08:46:23;;;;;;;;;;;;;;;;;;5093321;28;19921;-77
2021/12/12 08:48:50;;;;;;;;;;;;;;;;;;5095971;28;20014;-78
2021/12/12 08:51:18;;;;;;;;;;;;;;;;;;5096853;28;19923;-79
2021/12/12 08:53:45;;;;;;;;;;;;;;;;;;5098029;28;19920;-78
2021/12/12 08:56:19;;;;;;;;;;;;;;;;;;5097387;28;20437;-78
2021/12/12 08:58:44;;;;;;;;;;;;;;;;;;5099099;28;20424;-78
2021/12/12 09:01:11;;;;;;;;;;;;;;;;;;5099920;28;20029;-79
2021/12/12 09:03:39;;;;;;;;;;;;;;;;;;5098561;28;19916;-78
2021/12/12 09:06:06;;;;;;;;;;;;;;;;;;5078812;28;20377;-77
2021/12/12 09:08:37;;;;;;;;;;;;;;;;;;5078476;28;20389;-77
2021/12/12 09:11:13;;;;;;;;;;;;;;;;;;5077428;28;19920;-78
2021/12/12 09:13:43;;;;;;;;;;;;;;;;;;5078081;28;19916;-77
2021/12/12 09:16:11;;;;;;;;;;;;;;;;;;5075543;28;19920;-77
2021/12/12 09:18:48;;;;;;;;;;;;;;;;;;5080074;28;19913;-79
2021/12/12 09:21:24;;;;;;;;;;;;;;;;;;5080768;28;19920;-78
2021/12/12 09:24:01;;;;;;;;;;;;;;;;;;5078269;28;19962;-76
2021/12/12 09:26:26;;;;;;;;;;;;;;;;;;5078416;28;19959;-79
2021/12/12 09:29:18;;;;;;;;;;;;;;;;;;5078199;28;19912;-77
2021/12/12 09:31:58;;;;;;;;;;;;;;;;;;5054074;28;19931;-80
2021/12/12 09:34:31;;;;;;;;;;;;;;;;;;5077560;28;19943;-77
2021/12/12 09:37:05;;;;;;;;;;;;;;;;;;5075357;28;19987;-76
2021/12/12 09:39:38;;;;;;;;;;;;;;;;;;5076357;28;20324;-78
2021/12/12 09:42:04;;;;;;;;;;;;;;;;;;5077460;28;19928;-77
2021/12/12 09:44:35;;;;;;;;;;;;;;;;;;5076878;28;20426;-76
2021/12/12 09:47:35;;;;;;;;;;;;;;;;;;5075637;28;19920;-74
2021/12/12 09:53:10;;;;;;;;;;;;;;;;;;5094868;28;19920;-76
2021/12/12 09:55:41;;;;;;;;;;;;;;;;;;5095842;28;20358;-76
2021/12/12 09:58:22;;;;;;;;;;;;;;;;;;5096128;28;20059;-76
2021/12/12 10:00:58;;;;;;;;;;;;;;;;;;5095741;28;19919;-76
2021/12/12 10:03:48;;;;;;;;;;;;;;;;;;5095812;28;19963;-76
2021/12/12 10:06:15;;;;;;;;;;;;;;;;;;5095721;28;19919;-76
2021/12/12 10:08:40;;;;;;;;;;;;;;;;;;5095801;28;19920;-76
2021/12/12 10:11:08;;;;;;;;;;;;;;;;;;5094822;28;19978;-76
2021/12/12 10:13:42;;;;;;;;;;;;;;;;;;5095943;28;19920;-76
2021/12/12 10:16:14;;;;;;;;;;;;;;;;;;5095729;28;19951;-76
2021/12/12 10:18:45;;;;;;;;;;;;;;;;;;5095849;28;19930;-76
2021/12/12 10:21:16;;;;;;;;;;;;;;;;;;5095757;28;20374;-76
2021/12/12 10:23:47;;;;;;;;;;;;;;;;;;5095727;28;19981;-77
2021/12/12 10:26:31;;;;;;;;;;;;;;;;;;5094206;28;19916;-76
2021/12/12 10:29:02;;;;;;;;;;;;;;;;;;5095598;28;20385;-76
2021/12/12 10:31:30;;;;;;;;;;;;;;;;;;5095476;28;19916;-76
2021/12/12 10:34:00;;;;;;;;;;;;;;;;;;5095600;28;20101;-77
2021/12/12 10:36:33;;;;;;;;;;;;;;;;;;5095376;28;19928;-77
2021/12/12 10:39:13;;;;;;;;;;;;;;;;;;5094061;28;19916;-77
2021/12/12 10:41:38;;;;;;;;;;;;;;;;;;5095457;28;19920;-77
2021/12/12 10:44:09;;;;;;;;;;;;;;;;;;5093901;28;20251;-76
2021/12/12 10:46:38;;;;;;;;;;;;;;;;;;5096484;28;19928;-78
2021/12/12 10:49:06;;;;;;;;;;;;;;;;;;5096768;28;19920;-76
2021/12/12 10:51:37;;;;;;;;;;;;;;;;;;5095419;28;19927;-76
2021/12/12 10:54:09;;;;;;;;;;;;;;;;;;5095149;28;19968;-76
2021/12/12 10:56:34;;;;;;;;;;;;;;;;;;5095153;28;20278;-76
2021/12/12 10:59:03;;;;;;;;;;;;;;;;;;5100859;28;19916;-83
2021/12/12 11:01:33;;;;;;;;;;;;;;;;;;5101660;28;19920;-78
2021/12/12 11:04:08;;;;;;;;;;;;;;;;;;5091320;28;20017;-80
2021/12/12 11:06:38;;;;;;;;;;;;;;;;;;5082824;28;19927;-79
2021/12/12 11:09:06;;;;;;;;;;;;;;;;;;5090376;28;19965;-79
2021/12/12 11:11:33;;;;;;;;;;;;;;;;;;5101696;28;19945;-79
2021/12/12 11:14:05;;;;;;;;;;;;;;;;;;5105600;28;19900;-79
2021/12/12 11:16:34;;;;;;;;;;;;;;;;;;5105999;28;19947;-79
2021/12/12 11:19:00;;;;;;;;;;;;;;;;;;5098817;28;19923;-78
2021/12/12 11:21:27;;;;;;;;;;;;;;;;;;5082219;28;20289;-79
2021/12/12 11:23:52;;;;;;;;;;;;;;;;;;5101577;28;19916;-79
2021/12/12 11:26:21;;;;;;;;;;;;;;;;;;5099749;28;19923;-80
2021/12/12 11:28:55;;;;;;;;;;;;;;;;;;5101624;28;19939;-82
2021/12/12 11:31:31;;;;;;;;;;;;;;;;;;5099775;28;19962;-79
2021/12/12 11:33:56;;;;;;;;;;;;;;;;;;5093576;28;19917;-83
2021/12/12 11:36:26;;;;;;;;;;;;;;;;;;5080927;28;19920;-82
2021/12/12 11:39:06;;;;;;;;;;;;;;;;;;5080259;28;20005;-84
2021/12/12 11:41:40;;;;;;;;;;;;;;;;;;5079894;28;19920;-84
2021/12/12 11:44:24;;;;;;;;;;;;;;;;;;5080112;28;19917;-81
2021/12/12 11:46:56;;;;;;;;;;;;;;;;;;5081667;28;20049;-85
2021/12/12 11:49:31;;;;;;;;;;;;;;;;;;5079319;28;19916;-84
2021/12/12 11:52:09;;;;;;;;;;;;;;;;;;5078108;28;20358;-80
2021/12/12 11:54:46;;;;;;;;;;;;;;;;;;5075888;28;19924;-80
2021/12/12 11:57:13;;;;;;;;;;;;;;;;;;5077192;28;19920;-79
2021/12/12 11:59:51;;;;;;;;;;;;;;;;;;5079620;28;19916;-82
2021/12/12 12:02:29;;;;;;;;;;;;;;;;;;5079441;28;19916;-84
2021/12/12 12:05:01;;;;;;;;;;;;;;;;;;5110948;28;20008;-84
2021/12/12 12:07:50;;;;;;;;;;;;;;;;;;5120100;28;19972;-85
2021/12/12 12:10:34;;;;;;;;;;;;;;;;;;5083546;28;19994;-82
2021/12/12 12:13:03;;;;;;;;;;;;;;;;;;5102749;28;19915;-84
2021/12/12 12:15:52;;;;;;;;;;;;;;;;;;5120634;28;19955;-83
2021/12/12 12:18:26;;;;;;;;;;;;;;;;;;5118379;28;19916;-81
2021/12/12 12:21:07;;;;;;;;;;;;;;;;;;5120710;28;19911;-81
2021/12/12 12:24:36;;;;;;;;;;;;;;;;;;5118527;28;19915;-79
2021/12/12 12:29:21;;;;;;;;;;;;;;;;;;5119940;28;19949;-84
2021/12/12 12:31:50;;;;;;;;;;;;;;;;;;5118326;28;19915;-87
2021/12/12 12:34:35;;;;;;;;;;;;;;;;;;5111948;28;19916;-86
2021/12/12 12:37:19;;;;;;;;;;;;;;;;;;5084777;28;19928;-83
2021/12/12 12:40:03;;;;;;;;;;;;;;;;;;5101543;28;19923;-81
2021/12/12 12:42:47;;;;;;;;;;;;;;;;;;5101970;28;19981;-81
2021/12/12 12:45:31;;;;;;;;;;;;;;;;;;5101540;28;19916;-81
2021/12/12 12:48:15;;;;;;;;;;;;;;;;;;5102933;28;19920;-82
2021/12/12 12:50:40;;;;;;;;;;;;;;;;;;5106207;28;20427;-82
2021/12/12 12:53:21;;;;;;;;;;;;;;;;;;5105394;28;19920;-82
2021/12/12 12:56:05;;;;;;;;;;;;;;;;;;5103664;28;20446;-82
2021/12/12 12:58:50;;;;;;;;;;;;;;;;;;5100960;28;20429;-82
2021/12/12 13:01:34;;;;;;;;;;;;;;;;;;5101390;28;19942;-84
2021/12/12 13:04:15;;;;;;;;;;;;;;;;;;5103318;28;19925;-83
2021/12/12 13:06:40;;;;;;;;;;;;;;;;;;5101588;28;19923;-85
2021/12/12 13:09:19;;;;;;;;;;;;;;;;;;5100369;28;20377;-84
2021/12/12 13:11:45;;;;;;;;;;;;;;;;;;5101156;28;19923;-83
2021/12/12 13:14:10;;;;;;;;;;;;;;;;;;5100129;28;19916;-82
2021/12/12 13:16:43;;;;;;;;;;;;;;;;;;5099328;28;19941;-82
2021/12/12 13:19:15;;;;;;;;;;;;;;;;;;5099561;28;19965;-81
2021/12/12 13:21:54;;;;;;;;;;;;;;;;;;5098971;28;20393;-81
2021/12/12 13:24:24;;;;;;;;;;;;;;;;;;5105180;28;19966;-79
2021/12/12 13:27:00;;;;;;;;;;;;;;;;;;5100370;28;20389;-80
2021/12/12 13:29:31;;;;;;;;;;;;;;;;;;5099125;28;19961;-79
2021/12/12 13:32:02;;;;;;;;;;;;;;;;;;5106654;28;19919;-78
2021/12/12 13:34:46;;;;;;;;;;;;;;;;;;5105246;28;20364;-78
2021/12/12 13:37:27;;;;;;;;;;;;;;;;;;5098865;28;20003;-81
2021/12/12 13:39:52;;;;;;;;;;;;;;;;;;5095860;28;20328;-76
2021/12/12 13:42:26;;;;;;;;;;;;;;;;;;5096236;28;19958;-76
2021/12/12 13:45:07;;;;;;;;;;;;;;;;;;5095070;28;19923;-77
2021/12/12 13:47:51;;;;;;;;;;;;;;;;;;5099155;28;19920;-76
2021/12/12 13:50:16;;;;;;;;;;;;;;;;;;5080647;28;19923;-77
2021/12/12 13:53:11;;;;;;;;;;;;;;;;;;5098567;28;19916;-78
2021/12/12 13:55:40;;;;;;;;;;;;;;;;;;5087018;28;19920;-80
2021/12/12 13:58:25;;;;;;;;;;;;;;;;;;5100337;28;20270;-79
2021/12/12 14:00:55;;;;;;;;;;;;;;;;;;5100128;28;20448;-84
2021/12/12 14:03:41;;;;;;;;;;;;;;;;;;5080738;28;20011;-81
2021/12/12 14:06:10;;;;;;;;;;;;;;;;;;5066931;28;19938;-79
2021/12/12 14:08:41;;;;;;;;;;;;;;;;;;5082668;28;20006;-78
2021/12/12 14:11:08;;;;;;;;;;;;;;;;;;5078089;28;20007;-80
2021/12/12 14:13:39;;;;;;;;;;;;;;;;;;5080204;28;19974;-78
2021/12/12 14:16:17;;;;;;;;;;;;;;;;;;5079928;28;20331;-79
2021/12/12 14:18:43;;;;;;;;;;;;;;;;;;5078753;28;19917;-80
2021/12/12 14:21:10;;;;;;;;;;;;;;;;;;5078196;28;20007;-79
2021/12/12 14:23:37;;;;;;;;;;;;;;;;;;5078403;28;19931;-79
2021/12/12 14:26:16;;;;;;;;;;;;;;;;;;5077374;28;19916;-77
2021/12/12 14:28:44;;;;;;;;;;;;;;;;;;5077530;28;19916;-77
2021/12/12 14:31:09;;;;;;;;;;;;;;;;;;5076928;28;19917;-77
2021/12/12 14:33:42;;;;;;;;;;;;;;;;;;5077549;28;19916;-81
2021/12/12 14:36:12;;;;;;;;;;;;;;;;;;5075082;28;19987;-79
2021/12/12 14:38:37;;;;;;;;;;;;;;;;;;5082127;28;19924;-83
2021/12/12 14:41:03;;;;;;;;;;;;;;;;;;5118047;28;19915;-83
2021/12/12 14:43:52;;;;;;;;;;;;;;;;;;5115972;28;19923;-83
2021/12/12 14:46:17;;;;;;;;;;;;;;;;;;5120464;28;19958;-82
2021/12/12 14:48:51;;;;;;;;;;;;;;;;;;5120902;28;19919;-81
2021/12/12 14:51:21;;;;;;;;;;;;;;;;;;5124478;28;19915;-84
2021/12/12 14:53:48;;;;;;;;;;;;;;;;;;5121111;28;19915;-81
2021/12/12 14:56:15;;;;;;;;;;;;;;;;;;5119511;28;20027;-79
2021/12/12 14:58:43;;;;;;;;;;;;;;;;;;5118256;28;19912;-80
2021/12/12 15:01:20;;;;;;;;;;;;;;;;;;5121326;28;19915;-81
2021/12/12 15:03:48;;;;;;;;;;;;;;;;;;5121541;28;19974;-80
2021/12/12 15:06:15;;;;;;;;;;;;;;;;;;5119637;28;19915;-79
2021/12/12 15:08:48;;;;;;;;;;;;;;;;;;5097920;28;19942;-78
2021/12/12 15:11:17;;;;;;;;;;;;;;;;;;5098893;28;19922;-80
2021/12/12 15:13:44;;;;;;;;;;;;;;;;;;5099044;28;19974;-79
2021/12/12 15:16:36;;;;;;;;;;;;;;;;;;5102722;28;20271;-85
2021/12/12 15:19:12;;;;;;;;;;;;;;;;;;5102262;28;19959;-84
2021/12/12 15:21:40;;;;;;;;;;;;;;;;;;5103124;28;19916;-83
2021/12/12 15:24:14;;;;;;;;;;;;;;;;;;5102223;28;19961;-82
2021/12/12 15:26:41;;;;;;;;;;;;;;;;;;5107455;28;20392;-82
2021/12/12 15:29:08;;;;;;;;;;;;;;;;;;5105163;28;20337;-86
2021/12/12 15:31:44;;;;;;;;;;;;;;;;;;5089043;28;19920;-83
2021/12/12 15:34:12;;;;;;;;;;;;;;;;;;5099037;28;20251;-77
2021/12/12 15:36:41;;;;;;;;;;;;;;;;;;5096611;28;20033;-79
2021/12/12 15:39:11;;;;;;;;;;;;;;;;;;5108035;28;20033;-78
2021/12/12 15:41:38;;;;;;;;;;;;;;;;;;5105400;28;20318;-78
2021/12/12 15:44:08;;;;;;;;;;;;;;;;;;5104042;28;19933;-78
2021/12/12 15:46:35;;;;;;;;;;;;;;;;;;5105218;28;20374;-78
2021/12/12 15:49:11;;;;;;;;;;;;;;;;;;5106255;28;19923;-78
2021/12/12 15:51:37;;;;;;;;;;;;;;;;;;5107051;28;20358;-78
2021/12/12 15:54:06;;;;;;;;;;;;;;;;;;5105637;28;19923;-78
2021/12/12 15:56:46;;;;;;;;;;;;;;;;;;5107942;28;19927;-78
2021/12/12 15:59:17;;;;;;;;;;;;;;;;;;5105533;28;19938;-78
2021/12/12 16:01:48;;;;;;;;;;;;;;;;;;5105473;28;19912;-78
2021/12/12 16:04:17;;;;;;;;;;;;;;;;;;5104616;28;19916;-78
2021/12/12 16:06:43;;;;;;;;;;;;;;;;;;5100910;28;19916;-78
2021/12/12 16:09:13;;;;;;;;;;;;;;;;;;5096415;28;19992;-78
2021/12/12 16:11:39;;;;;;;;;;;;;;;;;;5097510;28;19920;-78
2021/12/12 16:14:08;;;;;;;;;;;;;;;;;;5095757;28;19912;-77
2021/12/12 16:16:53;;;;;;;;;;;;;;;;;;5094940;28;19924;-77
2021/12/12 16:19:28;;;;;;;;;;;;;;;;;;5099406;28;19923;-78
2021/12/12 16:21:55;;;;;;;;;;;;;;;;;;5097796;28;20456;-78
2021/12/12 16:24:25;;;;;;;;;;;;;;;;;;5101493;28;19916;-78
2021/12/12 16:26:51;;;;;;;;;;;;;;;;;;5103518;28;19923;-78
2021/12/12 16:29:19;;;;;;;;;;;;;;;;;;5105732;28;19916;-78
2021/12/12 16:32:04;;;;;;;;;;;;;;;;;;5105069;28;20334;-78
2021/12/12 16:34:35;;;;;;;;;;;;;;;;;;5108242;28;19920;-78
2021/12/12 16:37:04;;;;;;;;;;;;;;;;;;5106564;28;19974;-78
2021/12/12 16:39:32;;;;;;;;;;;;;;;;;;5107994;28;19924;-78
2021/12/12 16:42:06;;;;;;;;;;;;;;;;;;5110762;28;19923;-78
2021/12/12 16:44:33;;;;;;;;;;;;;;;;;;5107918;28;19924;-78
2021/12/12 16:47:02;;;;;;;;;;;;;;;;;;5107427;28;19967;-78
2021/12/12 16:49:29;;;;;;;;;;;;;;;;;;5108435;28;20346;-78
2021/12/12 16:51:59;;;;;;;;;;;;;;;;;;5096368;28;19920;-76
2021/12/12 16:54:36;;;;;;;;;;;;;;;;;;5093610;28;19916;-76
2021/12/12 16:57:05;;;;;;;;;;;;;;;;;;5093020;28;19920;-76
2021/12/12 16:59:32;;;;;;;;;;;;;;;;;;5093398;28;20061;-76
2021/12/12 17:01:58;;;;;;;;;;;;;;;;;;5093425;28;19923;-76
2021/12/12 17:04:27;;;;;;;;;;;;;;;;;;5090636;28;19927;-76
2021/12/12 17:07:02;;;;;;;;;;;;;;;;;;5092184;28;20366;-76
2021/12/12 17:09:38;;;;;;;;;;;;;;;;;;5093154;28;19916;-77
2021/12/12 17:12:22;;;;;;;;;;;;;;;;;;5092490;28;19920;-76
2021/12/12 17:14:58;;;;;;;;;;;;;;;;;;5093226;28;20369;-76
2021/12/12 17:17:28;;;;;;;;;;;;;;;;;;5093222;28;20412;-76
2021/12/12 17:19:55;;;;;;;;;;;;;;;;;;5094286;28;19934;-76
2021/12/12 17:22:22;;;;;;;;;;;;;;;;;;5096625;28;19923;-77
2021/12/12 17:24:51;;;;;;;;;;;;;;;;;;5096677;28;19932;-75
2021/12/12 17:27:19;;;;;;;;;;;;;;;;;;5092468;28;19923;-76
2021/12/12 17:29:45;;;;;;;;;;;;;;;;;;5083395;28;19924;-76